Time;durP1;ratioP1;P1;durP2;ratioP2;P2;SDS_P1;SDS_P2;PMS_P1;PMS_P2;Temp;Humidity;BMP_temperature;BMP_pressure;BME280_temperature;BME280_humidity;BME280_pressure;Samples;Min_cycle;Max_cycle;Signal;HPM_P1;HPM_P2
2021/12/26 00:01:12;;;;;;;24.15;7.57;;;15.40;99.90;;;;;;5050046;28;20393;-70
2021/12/26 00:04:17;;;;;;;31.10;7.22;;;15.40;99.90;;;;;;5051704;28;20138;-70
2021/12/26 00:07:21;;;;;;;22.55;7.97;;;15.40;99.90;;;;;;5053904;28;20408;-70
2021/12/26 00:10:26;;;;;;;31.65;7.18;;;15.40;99.90;;;;;;5053882;28;20040;-70
2021/12/26 00:13:31;;;;;;;27.10;6.97;;;15.40;99.90;;;;;;5053639;28;20056;-70
2021/12/26 00:16:35;;;;;;;25.58;7.40;;;15.40;99.90;;;;;;5053494;28;20044;-70
2021/12/26 00:19:39;;;;;;;31.88;6.45;;;15.40;99.90;;;;;;5053717;28;20047;-70
2021/12/26 00:22:43;;;;;;;27.40;6.47;;;15.40;99.90;;;;;;5053659;28;20043;-70
2021/12/26 00:25:48;;;;;;;21.52;6.00;;;15.40;99.90;;;;;;5053186;28;20040;-70
2021/12/26 00:28:53;;;;;;;25.98;7.18;;;15.40;99.90;;;;;;5053597;28;20385;-70
2021/12/26 00:31:57;;;;;;;25.55;6.43;;;15.40;99.90;;;;;;5053936;28;20496;-70
2021/12/26 00:35:02;;;;;;;32.33;7.25;;;15.40;99.90;;;;;;5052945;28;20428;-70
2021/12/26 00:38:07;;;;;;;33.55;6.50;;;15.40;99.90;;;;;;5053252;28;20052;-71
2021/12/26 00:41:11;;;;;;;30.90;6.78;;;15.40;99.90;;;;;;5053336;28;20056;-70
2021/12/26 00:44:15;;;;;;;30.55;6.43;;;15.40;99.90;;;;;;5052347;28;20199;-70
2021/12/26 00:47:19;;;;;;;31.33;7.38;;;15.40;99.90;;;;;;5053124;28;20044;-70
2021/12/26 00:50:29;;;;;;;28.40;5.70;;;15.40;99.90;;;;;;5052251;28;20052;-70
2021/12/26 00:53:33;;;;;;;30.05;7.00;;;15.40;99.90;;;;;;5053034;28;20051;-70
2021/12/26 00:56:38;;;;;;;33.78;6.07;;;15.40;99.90;;;;;;5052892;28;20393;-70
2021/12/26 00:59:42;;;;;;;31.05;7.70;;;15.40;99.90;;;;;;5040424;28;20048;-70
2021/12/26 01:02:47;;;;;;;27.73;6.53;;;15.40;99.90;;;;;;5052912;28;20055;-70
2021/12/26 01:05:55;;;;;;;28.02;7.53;;;15.40;99.90;;;;;;5052015;28;20052;-70
2021/12/26 01:08:59;;;;;;;25.55;7.28;;;15.50;99.90;;;;;;5051825;28;20500;-70
2021/12/26 01:12:12;;;;;;;27.85;6.28;;;15.40;99.90;;;;;;5051607;28;20055;-70
2021/12/26 01:15:18;;;;;;;35.97;6.68;;;15.40;99.90;;;;;;5050692;28;20040;-70
2021/12/26 01:18:32;;;;;;;33.20;6.63;;;15.40;99.90;;;;;;5052690;28;20103;-70
2021/12/26 01:21:37;;;;;;;21.88;6.75;;;15.40;99.90;;;;;;5051571;28;20048;-70
2021/12/26 01:24:54;;;;;;;34.90;7.10;;;15.40;99.90;;;;;;5051530;28;20048;-70
2021/12/26 01:27:58;;;;;;;33.75;6.63;;;15.40;99.90;;;;;;5052320;28;20052;-70
2021/12/26 01:31:04;;;;;;;39.28;7.22;;;15.40;99.90;;;;;;5051403;28;20044;-70
2021/12/26 01:34:11;;;;;;;35.83;6.95;;;15.40;99.90;;;;;;5051091;28;20056;-70
2021/12/26 01:37:30;;;;;;;32.95;6.30;;;15.40;99.90;;;;;;5051601;28;20056;-70
2021/12/26 01:40:48;;;;;;;32.13;6.80;;;15.40;99.90;;;;;;5052214;28;20044;-70
2021/12/26 01:44:18;;;;;;;41.40;7.60;;;15.40;99.90;;;;;;5052408;28;20095;-70
2021/12/26 01:47:24;;;;;;;34.70;6.82;;;15.30;99.90;;;;;;5051066;28;20283;-70
2021/12/26 01:50:29;;;;;;;36.33;7.63;;;15.30;99.90;;;;;;5051788;28;20039;-70
2021/12/26 01:53:39;;;;;;;32.10;7.05;;;15.40;99.90;;;;;;5050282;28;20052;-70
2021/12/26 01:56:43;;;;;;;50.53;8.05;;;15.30;99.90;;;;;;5050777;28;20393;-71
2021/12/26 01:59:48;;;;;;;34.60;6.40;;;15.30;99.90;;;;;;5050219;28;20056;-70
2021/12/26 02:03:00;;;;;;;31.35;6.18;;;15.30;99.90;;;;;;5050826;28;20230;-70
2021/12/26 02:06:06;;;;;;;33.30;6.18;;;15.30;99.90;;;;;;5050604;28;20051;-70
2021/12/26 02:09:18;;;;;;;38.25;5.97;;;15.30;99.90;;;;;;5050442;28;20052;-70
2021/12/26 02:12:22;;;;;;;39.55;6.43;;;15.30;99.90;;;;;;5039230;28;20040;-70
2021/12/26 02:15:26;;;;;;;33.45;5.68;;;15.30;99.90;;;;;;5050206;28;20044;-70
2021/12/26 02:18:41;;;;;;;31.63;7.00;;;15.30;99.90;;;;;;5050416;28;20060;-70
2021/12/26 02:22:25;;;;;;;36.25;5.32;;;15.30;99.90;;;;;;5050190;28;20058;-70
2021/12/26 02:28:54;;;;;;;24.90;6.10;;;15.20;99.90;;;;;;5067571;28;20043;-70
2021/12/26 02:31:59;;;;;;;22.77;4.50;;;15.30;99.90;;;;;;5050464;28;20504;-70
2021/12/26 02:35:04;;;;;;;24.38;5.35;;;15.30;99.90;;;;;;5049722;28;20076;-70
2021/12/26 02:38:09;;;;;;;28.98;5.32;;;15.30;99.90;;;;;;5050160;28;20517;-70
2021/12/26 02:41:13;;;;;;;35.28;5.93;;;15.30;99.90;;;;;;5049940;28;20104;-70
2021/12/26 02:44:18;;;;;;;25.58;4.72;;;15.20;99.90;;;;;;5049963;28;20284;-70
2021/12/26 02:47:36;;;;;;;24.42;4.85;;;15.30;99.90;;;;;;5050118;28;20396;-70
2021/12/26 02:50:42;;;;;;;29.50;5.53;;;15.30;99.90;;;;;;5049899;28;20048;-70
2021/12/26 02:53:48;;;;;;;28.83;5.43;;;15.30;99.90;;;;;;5050470;28;20068;-70
2021/12/26 02:56:54;;;;;;;29.58;6.03;;;15.30;99.90;;;;;;5049835;28;20048;-70
2021/12/26 03:00:23;;;;;;;29.50;5.53;;;15.20;99.90;;;;;;5049562;28;20184;-70
2021/12/26 03:03:26;;;;;;;25.83;4.68;;;15.30;99.90;;;;;;5050621;28;20203;-70
2021/12/26 03:06:50;;;;;;;23.52;5.68;;;15.30;99.90;;;;;;5038161;28;20048;-70
2021/12/26 03:09:59;;;;;;;27.25;4.70;;;15.30;99.90;;;;;;5049944;28;20503;-70
2021/12/26 03:13:08;;;;;;;34.53;5.43;;;15.30;99.90;;;;;;5049452;28;20507;-70
2021/12/26 03:16:12;;;;;;;25.27;5.05;;;15.30;99.90;;;;;;5050487;28;20044;-70
2021/12/26 03:19:16;;;;;;;25.63;5.35;;;15.30;99.90;;;;;;5050533;28;20047;-70
2021/12/26 03:22:24;;;;;;;20.92;5.43;;;15.30;99.90;;;;;;5050639;28;20413;-70
2021/12/26 03:25:32;;;;;;;31.55;5.35;;;15.20;99.90;;;;;;5050283;28;20044;-70
2021/12/26 03:28:36;;;;;;;28.63;4.88;;;15.30;99.90;;;;;;5049569;28;20040;-70
2021/12/26 03:31:41;;;;;;;23.35;5.90;;;15.30;99.90;;;;;;5049346;28;20053;-70
2021/12/26 03:34:49;;;;;;;23.92;4.47;;;15.30;99.90;;;;;;5049511;28;20056;-69
2021/12/26 03:37:56;;;;;;;28.63;4.93;;;15.30;99.90;;;;;;5049267;28;20056;-70
2021/12/26 03:41:20;;;;;;;31.58;5.93;;;15.20;99.90;;;;;;5054747;28;20488;-69
2021/12/26 03:44:31;;;;;;;31.77;4.78;;;15.20;99.90;;;;;;5053383;28;20052;-69
2021/12/26 03:47:36;;;;;;;24.92;4.50;;;15.20;99.90;;;;;;5053165;28;20044;-69
2021/12/26 03:50:41;;;;;;;32.83;5.72;;;15.20;99.90;;;;;;5054278;28;20048;-70
2021/12/26 03:53:45;;;;;;;32.40;4.45;;;15.20;99.90;;;;;;5053064;28;20500;-70
2021/12/26 03:56:50;;;;;;;18.73;4.20;;;15.20;99.90;;;;;;5053124;28;20444;-70
2021/12/26 03:59:57;;;;;;;19.42;4.10;;;15.20;99.90;;;;;;5052940;28;20416;-70
2021/12/26 04:03:01;;;;;;;24.38;5.05;;;15.20;99.90;;;;;;5052954;28;20052;-70
2021/12/26 04:06:06;;;;;;;25.33;4.45;;;15.20;99.90;;;;;;5053061;28;20203;-70
2021/12/26 04:09:18;;;;;;;25.45;4.22;;;15.20;99.90;;;;;;5052604;28;20060;-70
2021/12/26 04:12:22;;;;;;;28.50;4.50;;;15.20;99.90;;;;;;5052648;28;20039;-70
2021/12/26 04:15:27;;;;;;;19.08;3.78;;;15.20;99.90;;;;;;5052779;28;20052;-70
2021/12/26 04:18:31;;;;;;;22.65;4.60;;;15.20;99.90;;;;;;5052520;28;20104;-70
2021/12/26 04:21:35;;;;;;;25.35;4.10;;;15.20;99.90;;;;;;5052855;28;20047;-70
2021/12/26 04:24:40;;;;;;;28.95;4.57;;;15.20;99.90;;;;;;5052741;28;20405;-70
2021/12/26 04:27:44;;;;;;;24.92;4.13;;;15.20;99.90;;;;;;5053309;28;20059;-70
2021/12/26 04:30:47;;;;;;;29.15;5.20;;;15.10;99.90;;;;;;5052775;28;20051;-71
2021/12/26 04:33:51;;;;;;;28.45;4.90;;;15.20;99.90;;;;;;5052973;28;20056;-69
2021/12/26 04:36:55;;;;;;;26.02;4.55;;;15.10;99.90;;;;;;5052213;28;20040;-70
2021/12/26 04:40:00;;;;;;;30.98;4.63;;;15.10;99.90;;;;;;5052121;28;20039;-70
2021/12/26 04:43:11;;;;;;;28.80;4.97;;;15.10;99.90;;;;;;5052224;28;20052;-70
2021/12/26 04:46:25;;;;;;;28.55;4.55;;;15.10;99.90;;;;;;5040496;28;20064;-70
2021/12/26 04:49:34;;;;;;;24.30;4.32;;;15.10;99.90;;;;;;5051902;28;20570;-70
2021/12/26 04:52:42;;;;;;;19.45;3.92;;;15.10;99.90;;;;;;5051881;28;20060;-70
2021/12/26 04:55:46;;;;;;;26.92;4.05;;;15.10;99.90;;;;;;5052291;28;20043;-70
2021/12/26 04:58:50;;;;;;;31.25;4.55;;;15.10;99.90;;;;;;5052374;28;20385;-70
2021/12/26 05:01:55;;;;;;;24.77;4.80;;;15.10;99.90;;;;;;5052379;28;20039;-70
2021/12/26 05:04:59;;;;;;;22.60;4.65;;;15.10;99.90;;;;;;5052730;28;20044;-70
2021/12/26 05:08:04;;;;;;;26.33;5.35;;;15.10;99.90;;;;;;5051944;28;20530;-70
2021/12/26 05:11:08;;;;;;;24.02;3.92;;;15.10;99.90;;;;;;5051636;28;20044;-70
2021/12/26 05:14:12;;;;;;;20.38;4.05;;;15.10;99.90;;;;;;5052677;28;20060;-70
2021/12/26 05:17:16;;;;;;;19.80;4.75;;;15.10;99.90;;;;;;5052668;28;20044;-70
2021/12/26 05:20:21;;;;;;;18.25;3.50;;;15.10;99.90;;;;;;5051769;28;20064;-70
2021/12/26 05:23:26;;;;;;;21.45;4.75;;;15.10;99.90;;;;;;5052016;28;20052;-70
2021/12/26 05:26:30;;;;;;;25.33;4.57;;;15.10;99.90;;;;;;5052637;28;20072;-70
2021/12/26 05:29:34;;;;;;;21.17;4.70;;;15.10;99.90;;;;;;5051188;28;20055;-70
2021/12/26 05:32:40;;;;;;;21.90;3.78;;;15.10;99.90;;;;;;5052047;28;20055;-70
2021/12/26 05:35:44;;;;;;;25.63;4.97;;;15.10;99.90;;;;;;5051483;28;20048;-70
2021/12/26 05:38:48;;;;;;;21.95;4.70;;;15.10;99.90;;;;;;5051352;28;20047;-70
2021/12/26 05:41:52;;;;;;;28.48;5.47;;;15.10;99.90;;;;;;5052097;28;20215;-71
2021/12/26 05:45:12;;;;;;;22.88;4.95;;;15.10;99.90;;;;;;5051931;28;20040;-70
2021/12/26 05:48:31;;;;;;;22.73;4.22;;;15.10;99.90;;;;;;5041776;28;20503;-70
2021/12/26 05:51:35;;;;;;;24.58;4.57;;;15.10;99.90;;;;;;5051921;28;20048;-70
2021/12/26 05:55:03;;;;;;;31.08;5.38;;;15.10;99.90;;;;;;5050965;28;20067;-70
2021/12/26 05:58:07;;;;;;;28.13;5.47;;;15.10;99.90;;;;;;5051773;28;20047;-70
2021/12/26 06:01:11;;;;;;;24.73;5.25;;;15.10;99.90;;;;;;5050138;28;20397;-70
2021/12/26 06:04:15;;;;;;;26.02;5.55;;;15.10;99.90;;;;;;5050535;28;20204;-70
2021/12/26 06:07:20;;;;;;;25.58;5.97;;;15.10;99.90;;;;;;5051084;28;20065;-70
2021/12/26 06:10:25;;;;;;;29.00;5.13;;;15.10;99.90;;;;;;5050534;28;20036;-70
2021/12/26 06:13:31;;;;;;;21.05;4.93;;;15.10;99.90;;;;;;5050401;28;20071;-70
2021/12/26 06:16:35;;;;;;;24.98;5.03;;;15.10;99.90;;;;;;5050321;28;20043;-70
2021/12/26 06:19:41;;;;;;;21.02;4.60;;;15.10;99.90;;;;;;5050769;28;20500;-70
2021/12/26 06:23:09;;;;;;;19.48;4.10;;;15.10;99.90;;;;;;5050433;28;20047;-70
2021/12/26 06:26:42;;;;;;;22.27;4.60;;;15.10;99.90;;;;;;5051450;28;20484;-70
2021/12/26 06:29:58;;;;;;;24.20;5.75;;;15.10;99.90;;;;;;5050255;28;20079;-69
2021/12/26 06:33:25;;;;;;;29.05;5.50;;;15.00;99.90;;;;;;5050421;28;20052;-69
2021/12/26 06:36:48;;;;;;;23.77;5.18;;;15.00;99.90;;;;;;5051144;28;20059;-69
2021/12/26 06:40:15;;;;;;;30.67;6.10;;;15.00;99.90;;;;;;5050754;28;20219;-69
2021/12/26 06:43:39;;;;;;;24.55;4.60;;;15.00;99.90;;;;;;5051018;28;20396;-69
2021/12/26 06:47:02;;;;;;;27.75;5.68;;;15.00;99.90;;;;;;5051053;28;20043;-69
2021/12/26 06:50:16;;;;;;;24.90;5.05;;;15.00;99.90;;;;;;5050256;28;20060;-69
2021/12/26 06:53:20;;;;;;;29.45;5.72;;;15.00;99.90;;;;;;5050662;28;20071;-69
2021/12/26 06:56:24;;;;;;;27.77;5.15;;;15.00;99.90;;;;;;5049996;28;20040;-70
2021/12/26 06:59:29;;;;;;;28.75;5.60;;;15.00;99.90;;;;;;5050779;28;20052;-69
2021/12/26 07:02:33;;;;;;;24.38;5.47;;;15.00;99.90;;;;;;5050527;28;20052;-70
2021/12/26 07:05:37;;;;;;;28.50;6.00;;;15.00;99.90;;;;;;5049878;28;20048;-69
2021/12/26 07:08:50;;;;;;;24.10;6.05;;;15.00;99.90;;;;;;5038221;28;20612;-70
2021/12/26 07:11:53;;;;;;;24.08;5.13;;;15.00;99.90;;;;;;5049967;28;20365;-70
2021/12/26 07:15:16;;;;;;;;;;;15.00;99.90;;;;;;5049669;28;20064;-70
2021/12/26 07:18:26;;;;;;;25.33;5.80;;;15.00;99.90;;;;;;5049816;28;19909;-70
2021/12/26 07:21:30;;;;;;;25.20;6.10;;;15.00;99.90;;;;;;5049537;28;20056;-69
2021/12/26 07:24:43;;;;;;;19.48;5.07;;;15.00;99.90;;;;;;5049607;28;20056;-69
2021/12/26 07:27:48;;;;;;;22.50;5.53;;;15.10;99.90;;;;;;5049625;28;20048;-69
2021/12/26 07:31:10;;;;;;;30.65;5.50;;;15.10;99.90;;;;;;5050117;28;20298;-69
2021/12/26 07:34:15;;;;;;;26.75;6.15;;;15.00;99.90;;;;;;5049207;28;20068;-69
2021/12/26 07:37:22;;;;;;;26.23;5.95;;;15.10;99.90;;;;;;5049481;28;20040;-69
2021/12/26 07:40:27;;;;;;;30.30;5.72;;;15.10;99.90;;;;;;5049400;28;20516;-69
2021/12/26 07:43:35;;;;;;;31.75;6.55;;;15.10;99.90;;;;;;5049334;28;20052;-69
2021/12/26 07:47:15;;;;;;;24.27;6.03;;;15.10;99.90;;;;;;5048204;28;20044;-68
2021/12/26 07:50:20;;;;;;;29.63;6.53;;;15.10;99.90;;;;;;5049399;28;20049;-69
2021/12/26 07:54:01;;;;;;;23.33;5.72;;;15.10;99.90;;;;;;5047498;28;20052;-68
2021/12/26 07:57:24;;;;;;;22.25;5.43;;;15.10;99.90;;;;;;5050396;28;20052;-69
2021/12/26 08:00:51;;;;;;;27.05;5.50;;;15.10;99.90;;;;;;5049795;28;20039;-69
2021/12/26 08:04:15;;;;;;;29.60;5.88;;;15.10;99.90;;;;;;5050311;28;20044;-69
2021/12/26 08:07:38;;;;;;;28.45;6.18;;;15.10;99.90;;;;;;5050443;28;20072;-69
2021/12/26 08:10:42;;;;;;;27.42;6.10;;;15.10;99.90;;;;;;5049185;28;20044;-69
2021/12/26 08:13:46;;;;;;;28.90;7.35;;;15.10;99.90;;;;;;5049244;28;20416;-70
2021/12/26 08:16:50;;;;;;;25.10;6.65;;;15.10;99.90;;;;;;5049828;28;20048;-70
2021/12/26 08:19:54;;;;;;;15.23;5.00;;;15.10;99.90;;;;;;5049791;28;20064;-70
2021/12/26 08:22:58;;;;;;;33.92;17.92;;;15.10;99.90;;;;;;5050000;28;20044;-70
2021/12/26 08:26:04;;;;;;;23.33;6.35;;;15.10;99.90;;;;;;5052591;28;20044;-70
2021/12/26 08:29:08;;;;;;;30.40;6.45;;;15.10;99.90;;;;;;5053465;28;20055;-70
2021/12/26 08:32:14;;;;;;;25.05;6.30;;;15.10;99.90;;;;;;5053381;28;20044;-70
2021/12/26 08:35:18;;;;;;;37.13;8.13;;;15.10;99.90;;;;;;5052826;28;20052;-70
2021/12/26 08:38:23;;;;;;;24.17;6.82;;;15.20;99.90;;;;;;5053079;28;20048;-70
2021/12/26 08:41:27;;;;;;;27.85;7.15;;;15.20;99.90;;;;;;5053639;28;20056;-70
2021/12/26 08:44:32;;;;;;;30.52;8.07;;;15.20;99.90;;;;;;5053260;28;20044;-70
2021/12/26 08:47:37;;;;;;;35.33;7.53;;;15.30;99.90;;;;;;5052568;28;20243;-70
2021/12/26 08:50:43;;;;;;;31.17;7.18;;;15.30;99.90;;;;;;5053217;28;20048;-70
2021/12/26 08:53:47;;;;;;;36.17;6.32;;;15.40;99.90;;;;;;5052715;28;20048;-71
2021/12/26 08:56:52;;;;;;;28.42;7.10;;;15.40;99.90;;;;;;5053212;28;20044;-71
2021/12/26 08:59:57;;;;;;;28.40;6.82;;;15.50;99.90;;;;;;5052826;28;20060;-71
2021/12/26 09:03:00;;;;;;;26.65;6.93;;;15.50;99.90;;;;;;5052803;28;20040;-71
2021/12/26 09:06:04;;;;;;;37.55;6.97;;;15.70;99.90;;;;;;5052817;28;20059;-71
2021/12/26 09:09:10;;;;;;;33.72;6.90;;;15.80;99.90;;;;;;5052387;28;20048;-71
2021/12/26 09:12:14;;;;;;;28.88;6.25;;;15.90;99.90;;;;;;5052236;28;20067;-72
2021/12/26 09:15:17;;;;;;;23.25;6.38;;;16.00;99.90;;;;;;5052451;28;20071;-71
2021/12/26 09:18:22;;;;;;;30.55;6.75;;;16.10;99.90;;;;;;5052566;28;20048;-71
2021/12/26 09:21:26;;;;;;;18.38;5.50;;;16.10;99.90;;;;;;5052289;28;20059;-65
2021/12/26 09:24:30;;;;;;;31.90;5.53;;;16.00;99.90;;;;;;5052829;28;20048;-65
2021/12/26 09:27:34;;;;;;;23.45;5.43;;;16.00;99.90;;;;;;5052573;28;20048;-65
2021/12/26 09:30:38;;;;;;;27.60;6.70;;;16.00;99.90;;;;;;5052631;28;20048;-65
2021/12/26 09:33:43;;;;;;;35.80;7.25;;;16.10;99.90;;;;;;5051888;28;20056;-65
2021/12/26 09:36:47;;;;;;;30.05;6.97;;;16.10;99.90;;;;;;5051706;28;20389;-65
2021/12/26 09:39:53;;;;;;;24.90;5.88;;;16.10;99.90;;;;;;5052827;28;20044;-65
2021/12/26 09:42:56;;;;;;;14.23;4.22;;;16.20;99.90;;;;;;5051977;28;20044;-65
2021/12/26 09:46:00;;;;;;;25.30;4.88;;;16.30;99.90;;;;;;5051984;28;20052;-65
2021/12/26 09:49:04;;;;;;;26.45;5.18;;;16.40;99.90;;;;;;5052147;28;20048;-65
2021/12/26 09:52:09;;;;;;;22.50;5.90;;;16.50;99.90;;;;;;5051828;28;20107;-65
2021/12/26 09:55:15;;;;;;;17.00;4.95;;;16.60;99.90;;;;;;5051819;28;20413;-65
2021/12/26 09:58:20;;;;;;;29.90;5.45;;;16.80;99.90;;;;;;5052101;28;20044;-65
2021/12/26 10:01:36;;;;;;;19.10;5.32;;;17.00;99.90;;;;;;5051401;28;20056;-65
2021/12/26 10:04:43;;;;;;;22.70;5.57;;;17.20;99.90;;;;;;5051987;28;20052;-65
2021/12/26 10:08:04;;;;;;;24.08;5.00;;;17.20;99.90;;;;;;5050470;28;20048;-66
2021/12/26 10:11:16;;;;;;;21.33;5.18;;;17.10;99.90;;;;;;5050955;28;20068;-64
2021/12/26 10:14:27;;;;;;;32.22;5.70;;;17.00;99.90;;;;;;5051388;28;20056;-64
2021/12/26 10:17:31;;;;;;;26.75;5.47;;;16.90;99.90;;;;;;5051057;28;20504;-66
2021/12/26 10:20:35;;;;;;;25.35;5.88;;;16.70;99.90;;;;;;5051482;28;20143;-64
2021/12/26 10:23:44;;;;;;;22.98;5.72;;;16.70;99.90;;;;;;5051619;28;20056;-66
2021/12/26 10:26:56;;;;;;;23.55;5.75;;;16.60;99.90;;;;;;5051241;28;20403;-66
2021/12/26 10:30:04;;;;;;;26.33;7.82;;;16.50;99.90;;;;;;5051170;28;20047;-66
2021/12/26 10:33:08;;;;;;;27.52;6.10;;;16.50;99.90;;;;;;5050680;28;20044;-66
2021/12/26 10:36:12;;;;;;;27.52;6.22;;;16.60;99.90;;;;;;5050808;28;20083;-66
2021/12/26 10:39:18;;;;;;;30.02;6.57;;;16.70;99.90;;;;;;5050330;28;20032;-66
2021/12/26 10:42:31;;;;;;;29.52;6.47;;;16.80;99.90;;;;;;5050212;28;20048;-63
2021/12/26 10:45:36;;;;;;;25.92;5.22;;;17.00;99.90;;;;;;5051097;28;20040;-65
2021/12/26 10:48:40;;;;;;;27.45;6.05;;;17.20;99.90;;;;;;5050721;28;20043;-66
2021/12/26 10:51:44;;;;;;;22.27;5.10;;;17.40;99.90;;;;;;5051032;28;20499;-66
2021/12/26 10:54:50;;;;;;;27.73;6.05;;;17.60;99.60;;;;;;5050724;28;20064;-66
2021/12/26 10:57:54;;;;;;;21.67;5.15;;;17.90;99.60;;;;;;5051089;28;20055;-65
2021/12/26 11:00:58;;;;;;;26.80;6.10;;;18.10;99.40;;;;;;5051240;28;20048;-65
2021/12/26 11:04:06;;;;;;;20.63;5.40;;;18.20;98.50;;;;;;5050717;28;20044;-65
2021/12/26 11:07:10;;;;;;;20.95;5.53;;;18.30;98.20;;;;;;5050698;28;20044;-65
2021/12/26 11:10:20;;;;;;;18.88;4.60;;;18.40;98.30;;;;;;5050818;28;20048;-65
2021/12/26 11:13:27;;;;;;;25.80;5.47;;;18.60;98.10;;;;;;5050895;28;20055;-65
2021/12/26 11:16:39;;;;;;;19.00;5.43;;;18.60;97.80;;;;;;5050741;28;20631;-65
2021/12/26 11:19:44;;;;;;;;;;;18.70;97.20;;;;;;5050767;28;20056;-65
2021/12/26 11:22:48;;;;;;;20.67;4.15;;;18.60;97.00;;;;;;5050917;28;19909;-65
2021/12/26 11:26:00;;;;;;;25.30;6.68;;;18.50;96.70;;;;;;5050651;28;20048;-65
2021/12/26 11:29:04;;;;;;;19.50;4.85;;;18.50;97.20;;;;;;5050505;28;20040;-65
2021/12/26 11:32:09;;;;;;;28.55;7.35;;;18.40;96.80;;;;;;5050492;28;20044;-65
2021/12/26 11:35:13;;;;;;;24.58;6.88;;;18.40;96.50;;;;;;5050196;28;20530;-65
2021/12/26 11:38:22;;;;;;;23.27;5.60;;;18.40;96.50;;;;;;5050562;28;20036;-65
2021/12/26 11:42:01;;;;;;;20.70;4.20;;;18.30;97.00;;;;;;5048280;28;20040;-65
2021/12/26 11:45:27;;;;;;;19.77;4.78;;;18.20;96.90;;;;;;5050295;28;20060;-65
2021/12/26 11:49:39;;;;;;;16.58;5.65;;;18.20;96.70;;;;;;5050403;28;20072;-65
2021/12/26 11:53:35;;;;;;;18.42;4.90;;;18.10;96.50;;;;;;5049717;28;20048;-65
2021/12/26 11:57:20;;;;;;;17.00;4.18;;;18.10;96.90;;;;;;5049626;28;20397;-65
2021/12/26 12:00:38;;;;;;;22.33;5.47;;;18.10;96.80;;;;;;5052024;28;20048;-65
2021/12/26 12:03:42;;;;;;;17.80;4.78;;;18.00;96.50;;;;;;5053969;28;20039;-65
2021/12/26 12:06:48;;;;;;;24.73;4.93;;;18.00;96.50;;;;;;5054058;28;20064;-65
2021/12/26 12:09:52;;;;;;;24.80;6.30;;;17.90;96.70;;;;;;5054076;28;20041;-65
2021/12/26 12:12:56;;;;;;;19.20;5.80;;;17.80;96.70;;;;;;5053900;28;20396;-65
2021/12/26 12:16:04;;;;;;;27.23;5.90;;;17.80;97.00;;;;;;5054027;28;20059;-65
2021/12/26 12:19:10;;;;;;;24.75;5.63;;;17.80;96.90;;;;;;5053550;28;20040;-65
2021/12/26 12:22:14;;;;;;;20.52;6.35;;;17.80;97.00;;;;;;5053687;28;20048;-65
2021/12/26 12:25:34;;;;;;;20.70;5.53;;;17.70;97.20;;;;;;5053861;28;20048;-65
2021/12/26 12:28:43;;;;;;;20.42;5.53;;;17.70;97.40;;;;;;5053789;28;20389;-65
2021/12/26 12:31:47;;;;;;;29.23;6.05;;;17.70;97.50;;;;;;5053720;28;20047;-65
2021/12/26 12:35:06;;;;;;;25.98;5.25;;;17.60;97.50;;;;;;5053182;28;20064;-64
2021/12/26 12:38:48;;;;;;;24.15;5.68;;;17.50;97.80;;;;;;5053528;28;20044;-65
2021/12/26 12:41:54;;;;;;;27.40;5.47;;;17.50;98.10;;;;;;5051415;28;20330;-65
2021/12/26 12:44:58;;;;;;;24.73;6.13;;;17.40;98.00;;;;;;5051070;28;20044;-64
2021/12/26 12:48:25;;;;;;;21.77;5.80;;;17.40;98.10;;;;;;5053454;28;20043;-64
2021/12/26 12:51:33;;;;;;;18.25;4.68;;;17.40;98.00;;;;;;5053341;28;20043;-64
2021/12/26 12:54:48;;;;;;;23.08;5.65;;;17.40;97.80;;;;;;5053235;28;20203;-64
2021/12/26 12:57:55;;;;;;;22.38;5.60;;;17.40;97.90;;;;;;5053045;28;20424;-64
2021/12/26 13:01:00;;;;;;;21.70;4.93;;;17.50;98.10;;;;;;5053301;28;20207;-64
2021/12/26 13:04:04;;;;;;;29.52;5.57;;;17.50;98.20;;;;;;5053333;28;20044;-64
2021/12/26 13:07:13;;;;;;;32.70;5.18;;;17.50;98.00;;;;;;5052874;28;20214;-64
2021/12/26 13:10:17;;;;;;;22.85;5.18;;;17.40;98.10;;;;;;5053062;28;20515;-65
2021/12/26 13:13:21;;;;;;;24.38;5.32;;;17.40;98.10;;;;;;5052538;28;20040;-64
2021/12/26 13:16:31;;;;;;;22.88;5.40;;;17.30;98.20;;;;;;5052754;28;20519;-65
2021/12/26 13:19:34;;;;;;;27.15;6.88;;;17.20;98.20;;;;;;5052779;28;20040;-64
2021/12/26 13:22:58;;;;;;;23.98;8.70;;;17.30;98.50;;;;;;5052717;28;20059;-64
2021/12/26 13:26:10;;;;;;;29.63;10.88;;;17.20;98.70;;;;;;5052910;28;20397;-64
2021/12/26 13:29:14;;;;;;;22.27;6.70;;;17.30;98.70;;;;;;5052289;28;20095;-65
2021/12/26 13:32:18;;;;;;;26.52;5.93;;;17.20;98.50;;;;;;5052697;28;20044;-64
2021/12/26 13:35:34;;;;;;;23.85;6.38;;;17.20;98.50;;;;;;5052089;28;20059;-64
2021/12/26 13:38:39;;;;;;;21.23;5.88;;;17.30;98.50;;;;;;5052485;28;20134;-64
2021/12/26 13:41:45;;;;;;;24.30;6.55;;;17.30;98.50;;;;;;5052045;28;20075;-65
2021/12/26 13:44:49;;;;;;;24.60;6.43;;;17.30;98.50;;;;;;5052231;28;20040;-66
2021/12/26 13:47:53;;;;;;;26.38;6.00;;;17.30;98.40;;;;;;5051721;28;20393;-66
2021/12/26 13:50:58;;;;;;;23.23;6.10;;;17.30;98.30;;;;;;5051786;28;20040;-66
2021/12/26 13:54:19;;;;;;;26.17;5.50;;;17.20;98.40;;;;;;5051803;28;20048;-66
2021/12/26 13:57:24;;;;;;;24.73;5.82;;;17.20;98.70;;;;;;5052181;28;20059;-66
2021/12/26 14:00:28;;;;;;;28.40;7.28;;;17.10;99.30;;;;;;5051901;28;20493;-66
2021/12/26 14:03:32;;;;;;;31.38;6.65;;;17.10;99.70;;;;;;5052212;28;20215;-65
2021/12/26 14:06:35;;;;;;;23.70;6.10;;;16.90;99.70;;;;;;5051883;28;20048;-66
2021/12/26 14:09:42;;;;;;;26.13;6.93;;;16.90;99.90;;;;;;5052267;28;20044;-66
2021/12/26 14:12:49;;;;;;;24.60;7.10;;;16.80;99.90;;;;;;5051743;28;20048;-66
2021/12/26 14:15:57;;;;;;;30.75;7.75;;;16.80;99.90;;;;;;5051749;28;20075;-65
2021/12/26 14:19:05;;;;;;;29.52;8.60;;;16.80;99.90;;;;;;5051648;28;20040;-66
2021/12/26 14:22:10;;;;;;;27.98;7.50;;;16.80;99.90;;;;;;5051484;28;20059;-65
2021/12/26 14:25:14;;;;;;;33.97;7.43;;;16.80;99.90;;;;;;5051886;28;20044;-65
2021/12/26 14:28:19;;;;;;;34.40;7.38;;;16.70;99.90;;;;;;5051411;28;20400;-65
2021/12/26 14:31:37;;;;;;;36.47;10.77;;;16.70;99.90;;;;;;5051702;28;20052;-65
2021/12/26 14:34:45;;;;;;;37.55;7.70;;;16.70;99.90;;;;;;5051380;28;20433;-65
2021/12/26 14:37:49;;;;;;;36.95;9.70;;;16.70;99.90;;;;;;5051346;28;20072;-66
2021/12/26 14:41:00;;;;;;;32.10;8.70;;;16.60;99.90;;;;;;5051488;28;20527;-65
2021/12/26 14:44:20;;;;;;;32.28;7.85;;;16.60;99.90;;;;;;5051427;28;20044;-64
2021/12/26 14:47:27;;;;;;;33.47;8.23;;;16.60;99.90;;;;;;5051400;28;20509;-64
2021/12/26 14:50:31;;;;;;;39.20;9.15;;;16.60;99.90;;;;;;5051835;28;20040;-65
2021/12/26 14:53:35;;;;;;;35.10;8.70;;;16.60;99.90;;;;;;5051272;28;20044;-65
2021/12/26 14:56:57;;;;;;;32.97;8.52;;;16.60;99.90;;;;;;5051261;28;20389;-65
2021/12/26 15:00:05;;;;;;;36.53;8.50;;;16.50;99.90;;;;;;5050904;28;20040;-65
2021/12/26 15:03:15;;;;;;;36.67;7.55;;;16.50;99.90;;;;;;5051117;28;20523;-65
2021/12/26 15:06:19;;;;;;;37.55;9.30;;;16.50;99.90;;;;;;5051124;28;20040;-66
2021/12/26 15:09:40;;;;;;;30.42;8.65;;;16.50;99.90;;;;;;5050906;28;20048;-66
2021/12/26 15:12:50;;;;;;;44.53;7.65;;;16.40;99.90;;;;;;5051133;28;20044;-66
2021/12/26 15:15:54;;;;;;;34.30;8.02;;;16.40;99.90;;;;;;5050746;28;20408;-66
2021/12/26 15:18:58;;;;;;;31.08;8.43;;;16.40;99.90;;;;;;5050539;28;20044;-66
2021/12/26 15:22:04;;;;;;;46.90;10.63;;;16.30;99.90;;;;;;5050794;28;20646;-66
2021/12/26 15:25:09;;;;;;;31.23;8.35;;;16.30;99.90;;;;;;5049792;28;20044;-66
2021/12/26 15:28:20;;;;;;;31.38;9.02;;;16.30;99.90;;;;;;5050640;28;20068;-66
2021/12/26 15:31:38;;;;;;;31.10;8.35;;;16.30;99.90;;;;;;5050625;28;20036;-64
2021/12/26 15:34:48;;;;;;;34.10;7.53;;;16.30;99.90;;;;;;5051157;28;20524;-66
2021/12/26 15:37:52;;;;;;;34.67;8.20;;;16.20;99.90;;;;;;5054415;28;20056;-64
2021/12/26 15:40:56;;;;;;;32.55;8.73;;;16.20;99.90;;;;;;5054576;28;20370;-66
2021/12/26 15:44:01;;;;;;;33.83;8.35;;;16.20;99.90;;;;;;5054564;28;20512;-71
2021/12/26 15:47:06;;;;;;;29.88;7.22;;;16.20;99.90;;;;;;5054308;28;20048;-70
2021/12/26 15:50:11;;;;;;;29.02;7.78;;;16.10;99.90;;;;;;5054119;28;20044;-70
2021/12/26 15:53:15;;;;;;;37.08;8.73;;;16.10;99.90;;;;;;5054270;28;20044;-70
2021/12/26 15:56:19;;;;;;;30.13;8.43;;;16.00;99.90;;;;;;5054326;28;20060;-71
2021/12/26 15:59:23;;;;;;;27.60;8.27;;;16.00;99.90;;;;;;5054455;28;20040;-71
2021/12/26 16:02:27;;;;;;;35.90;8.50;;;15.90;99.90;;;;;;5053936;28;20562;-69
2021/12/26 16:05:31;;;;;;;34.28;7.82;;;16.00;99.90;;;;;;5054558;28;20048;-71
2021/12/26 16:08:35;;;;;;;34.72;7.70;;;15.90;99.90;;;;;;5053837;28;20043;-71
2021/12/26 16:11:40;;;;;;;29.30;8.13;;;15.90;99.90;;;;;;5053946;28;20044;-70
2021/12/26 16:14:44;;;;;;;31.33;9.70;;;15.90;99.90;;;;;;5053819;28;20048;-70